| time (UTC) | temp F | wind direction | speed knots | gust knots | rain 1hr in | rain 24hr in | rain mn in | humidity % | barometer mb |
| 20260906035328 | 42 | 0 | 0.0 | 0.0 | 0.00 | 0.00 | 0.00 | 88 | 1111.0 |
| 20260906035026 | 42 | 0 | 0.0 | 0.0 | 0.00 | 0.00 | 0.00 | 88 | 1111.0 |
| 20260906034025 | 42 | 0 | 0.0 | 0.0 | 0.00 | 0.00 | 0.00 | 88 | 1111.0 |
| 20260906033427 | 42 | 0 | 0.0 | 1.7 | 0.00 | 0.00 | 0.00 | 88 | 1111.0 |
| 20260906033024 | 42 | 0 | 0.0 | 1.7 | 0.00 | 0.00 | 0.00 | 88 | 1111.0 |
| 20260906032024 | 42 | 0 | 0.0 | 0.0 | 0.00 | 0.00 | 0.00 | 88 | 1111.0 |
| 20260906031526 | 42 | 0 | 0.0 | 0.0 | 0.00 | 0.00 | 0.00 | 88 | 1111.0 |
| 20260906031023 | 42 | 0 | 0.0 | 0.0 | 0.00 | 0.00 | 0.00 | 87 | 1111.0 |
| 20260906030023 | 42 | 0 | 0.0 | 0.0 | 0.00 | 0.00 | 0.00 | 87 | 1111.0 |
| 20260906025625 | 42 | 0 | 0.0 | 0.0 | 0.00 | 0.00 | 0.00 | 87 | 1111.0 |
| 20260906025022 | 43 | 0 | 0.0 | 0.0 | 0.00 | 0.00 | 0.00 | 87 | 1111.0 |
| 20260906024022 | 43 | 0 | 0.0 | 0.0 | 0.00 | 0.00 | 0.00 | 87 | 1111.0 |
| 20260906023021 | 44 | 0 | 0.0 | 0.0 | 0.00 | 0.00 | 0.00 | 87 | 1111.0 |
| 20260906022020 | 44 | 0 | 0.0 | 0.0 | 0.00 | 0.00 | 0.00 | 87 | 1111.0 |
| 20260906021823 | 44 | 0 | 0.0 | 0.0 | 0.00 | 0.00 | 0.00 | 87 | 1111.0 |
| 20260906021020 | 44 | 0 | 0.0 | 0.0 | 0.00 | 0.00 | 0.00 | 87 | 1111.0 |
| 20260906020019 | 44 | 0 | 0.0 | 0.0 | 0.00 | 0.00 | 0.00 | 87 | 1111.0 |
| 20260906015922 | 44 | 0 | 0.0 | 0.0 | 0.00 | 0.00 | 0.00 | 87 | 1111.0 |
| 20260906015019 | 44 | 0 | 0.0 | 0.0 | 0.00 | 0.00 | 0.00 | 87 | 1111.0 |
| 20260906014018 | 44 | 0 | 0.0 | 0.0 | 0.00 | 0.00 | 0.00 | 87 | 1111.0 |
| 20260906013018 | 45 | 0 | 0.0 | 0.0 | 0.00 | 0.00 | 0.00 | 87 | 1111.0 |
| 20260906012119 | 45 | 0 | 0.0 | 0.0 | 0.00 | 0.00 | 0.00 | 87 | 1111.0 |
| 20260906012017 | 45 | 0 | 0.0 | 0.0 | 0.00 | 0.00 | 0.00 | 87 | 1111.0 |
| 20260906011016 | 46 | 0 | 0.0 | 0.0 | 0.00 | 0.00 | 0.00 | 87 | 1111.0 |
| 20260906010219 | 46 | 0 | 0.0 | 0.0 | 0.00 | 0.00 | 0.00 | 87 | 1111.0 |
| 20260906010017 | 46 | 0 | 0.0 | 0.0 | 0.00 | 0.00 | 0.00 | 87 | 1111.0 |
| 20260906005015 | 46 | 0 | 0.0 | 0.0 | 0.00 | 0.00 | 0.00 | 87 | 1111.0 |
| 20260906004317 | 47 | 0 | 0.0 | 0.0 | 0.00 | 0.00 | 0.00 | 87 | 1111.0 |
| 20260906004015 | 47 | 0 | 0.0 | 0.0 | 0.00 | 0.00 | 0.00 | 87 | 1111.0 |
| 20260906003014 | 47 | 0 | 0.0 | 0.0 | 0.00 | 0.00 | 0.00 | 87 | 1111.0 |
| 20260906002416 | 47 | 0 | 0.0 | 0.0 | 0.00 | 0.00 | 0.00 | 87 | 1111.0 |
| 20260906002014 | 48 | 0 | 0.0 | 0.0 | 0.00 | 0.00 | 0.00 | 87 | 1111.0 |
| 20260906001013 | 48 | 0 | 1.7 | 1.7 | 0.00 | 0.00 | 0.00 | 87 | 1111.0 |
| 20260906000013 | 48 | 0 | 0.0 | 0.0 | 0.00 | 0.00 | 0.00 | 87 | 1111.0 |
| 20260905235012 | 48 | 0 | 0.0 | 0.0 | 0.00 | 0.00 | 0.00 | 87 | 1111.0 |
| 20260905234614 | 48 | 0 | 0.0 | 0.0 | 0.00 | 0.00 | 0.00 | 86 | 1111.0 |
| 20260905234011 | 48 | 0 | 0.0 | 0.0 | 0.00 | 0.00 | 0.00 | 86 | 1111.0 |
| 20260905233011 | 48 | 0 | 0.0 | 0.0 | 0.00 | 0.00 | 0.00 | 86 | 1111.0 |
| 20260905232714 | 48 | 0 | 0.0 | 0.0 | 0.00 | 0.00 | 0.00 | 86 | 1111.0 |
| 20260905232010 | 48 | 0 | 0.0 | 0.0 | 0.00 | 0.00 | 0.00 | 86 | 1111.0 |
| 20260905231010 | 48 | 0 | 0.0 | 0.0 | 0.00 | 0.00 | 0.00 | 86 | 1111.0 |
| 20260905230812 | 48 | 0 | 0.0 | 0.0 | 0.00 | 0.00 | 0.00 | 86 | 1111.0 |
| 20260905230009 | 48 | 0 | 0.0 | 0.0 | 0.00 | 0.00 | 0.00 | 86 | 1111.0 |
| 20260905225008 | 48 | 0 | 0.0 | 0.0 | 0.00 | 0.00 | 0.00 | 85 | 1111.0 |
| 20260905224911 | 48 | 0 | 0.0 | 0.0 | 0.00 | 0.00 | 0.00 | 85 | 1111.0 |
| 20260905224008 | 49 | 0 | 0.0 | 0.9 | 0.00 | 0.00 | 0.00 | 85 | 1111.0 |
| 20260905223007 | 49 | 0 | 0.0 | 0.0 | 0.00 | 0.00 | 0.00 | 85 | 1111.0 |
| 20260905222007 | 49 | 0 | 0.9 | 0.9 | 0.00 | 0.00 | 0.00 | 85 | 1111.0 |
| 20260905221109 | 50 | 0 | 0.0 | 0.0 | 0.00 | 0.00 | 0.00 | 85 | 1111.0 |
| 20260905221006 | 50 | 0 | 0.0 | 0.0 | 0.00 | 0.00 | 0.00 | 85 | 1111.0 |
| 20260905220006 | 50 | 0 | 0.0 | 0.9 | 0.00 | 0.00 | 0.00 | 85 | 1111.0 |
| 20260905215208 | 50 | 0 | 0.0 | 0.0 | 0.00 | 0.00 | 0.00 | 85 | 1111.0 |
| 20260905215005 | 50 | 0 | 0.0 | 0.0 | 0.00 | 0.00 | 0.00 | 85 | 1111.0 |
| 20260905214004 | 50 | 0 | 0.0 | 0.0 | 0.00 | 0.00 | 0.00 | 85 | 1111.0 |
| 20260905213307 | 50 | 0 | 0.0 | 0.0 | 0.00 | 0.00 | 0.00 | 85 | 1111.0 |
| 20260905213004 | 50 | 0 | 0.0 | 0.0 | 0.00 | 0.00 | 0.00 | 85 | 1111.0 |
| 20260905212003 | 50 | 0 | 0.9 | 0.9 | 0.00 | 0.00 | 0.00 | 85 | 1111.0 |
| 20260905211405 | 50 | 0 | 0.0 | 0.0 | 0.00 | 0.00 | 0.00 | 85 | 1111.0 |
| 20260905211003 | 50 | 0 | 0.0 | 0.0 | 0.00 | 0.00 | 0.00 | 85 | 1111.0 |
| 20260905210002 | 51 | 0 | 0.0 | 0.0 | 0.00 | 0.00 | 0.00 | 85 | 1111.0 |
| 20260905205504 | 51 | 0 | 0.0 | 0.0 | 0.00 | 0.00 | 0.00 | 84 | 1111.0 |
| 20260905205002 | 51 | 0 | 0.0 | 0.0 | 0.00 | 0.00 | 0.00 | 84 | 1111.0 |
| 20260905204001 | 51 | 0 | 0.0 | 1.7 | 0.00 | 0.00 | 0.00 | 84 | 1111.0 |
| 20260905203603 | 51 | 0 | 1.7 | 1.7 | 0.00 | 0.00 | 0.00 | 84 | 1111.0 |
| 20260905203000 | 52 | 0 | 0.9 | 0.9 | 0.00 | 0.00 | 0.00 | 84 | 1111.0 |
| 20260905202000 | 52 | 0 | 0.0 | 0.9 | 0.00 | 0.00 | 0.00 | 84 | 1111.0 |
| 20260905200959 | 52 | 0 | 0.0 | 0.0 | 0.00 | 0.00 | 0.00 | 84 | 1111.0 |
| 20260905195959 | 53 | 0 | 0.0 | 0.0 | 0.00 | 0.00 | 0.00 | 85 | 1111.0 |
| 20260905195801 | 53 | 0 | 0.0 | 0.0 | 0.00 | 0.00 | 0.00 | 85 | 1111.0 |
| 20260905194958 | 53 | 0 | 0.0 | 0.0 | 0.00 | 0.00 | 0.00 | 84 | 1111.0 |
| 20260905193958 | 54 | 0 | 0.0 | 0.0 | 0.00 | 0.00 | 0.00 | 84 | 1111.0 |
| 20260905192957 | 54 | 0 | 0.0 | 0.0 | 0.00 | 0.00 | 0.00 | 84 | 1111.0 |
| 20260905191957 | 55 | 0 | 0.0 | 0.0 | 0.00 | 0.00 | 0.00 | 83 | 1111.0 |
| 20260905190956 | 55 | 0 | 0.0 | 0.0 | 0.00 | 0.00 | 0.00 | 81 | 1111.0 |
| 20260905190058 | 55 | 0 | 1.7 | 1.7 | 0.00 | 0.00 | 0.00 | 82 | 1111.0 |
| 20260905185955 | 56 | 0 | 1.7 | 1.7 | 0.00 | 0.00 | 0.00 | 82 | 1111.0 |
| 20260905184955 | 56 | 0 | 0.0 | 0.0 | 0.00 | 0.00 | 0.00 | 82 | 1111.0 |
| 20260905184157 | 56 | 0 | 0.0 | 0.0 | 0.00 | 0.00 | 0.00 | 82 | 1111.0 |
| 20260905183954 | 56 | 0 | 0.0 | 0.0 | 0.00 | 0.00 | 0.00 | 82 | 1111.0 |
| 20260905182954 | 57 | 0 | 0.0 | 0.0 | 0.00 | 0.00 | 0.00 | 81 | 1111.0 |
| 20260905182256 | 57 | 0 | 0.0 | 0.9 | 0.00 | 0.00 | 0.00 | 81 | 1111.0 |
| 20260905181953 | 57 | 0 | 0.9 | 0.9 | 0.00 | 0.00 | 0.00 | 81 | 1111.0 |
| 20260905180952 | 57 | 0 | 0.0 | 0.9 | 0.00 | 0.00 | 0.00 | 81 | 1111.0 |
| 20260905175952 | 58 | 0 | 0.0 | 1.7 | 0.00 | 0.00 | 0.00 | 80 | 1111.0 |
| 20260905174951 | 58 | 0 | 0.0 | 0.0 | 0.00 | 0.00 | 0.00 | 79 | 1111.0 |
| 20260905173951 | 59 | 0 | 0.0 | 1.7 | 0.00 | 0.00 | 0.00 | 79 | 1111.0 |
| 20260905172950 | 59 | 0 | 0.0 | 0.0 | 0.00 | 0.00 | 0.00 | 78 | 1111.0 |
| 20260905171950 | 60 | 0 | 0.0 | 0.0 | 0.00 | 0.00 | 0.00 | 78 | 1111.0 |
| 20260905170949 | 60 | 0 | 0.0 | 0.9 | 0.00 | 0.00 | 0.00 | 78 | 1111.0 |
| 20260905165948 | 61 | 0 | 0.0 | 0.0 | 0.00 | 0.00 | 0.00 | 77 | 1111.0 |
| 20260905164948 | 62 | 0 | 0.0 | 0.0 | 0.00 | 0.00 | 0.00 | 77 | 1111.0 |
| 20260905164749 | 62 | 0 | 0.0 | 0.0 | 0.00 | 0.00 | 0.00 | 77 | 1111.0 |
| 20260905163947 | 62 | 0 | 0.0 | 0.0 | 0.00 | 0.00 | 0.00 | 76 | 1111.0 |
| 20260905162947 | 62 | 0 | 0.0 | 0.9 | 0.00 | 0.00 | 0.00 | 75 | 1111.0 |
| 20260905162848 | 62 | 0 | 0.0 | 0.9 | 0.00 | 0.00 | 0.00 | 75 | 1111.0 |
| 20260905161946 | 63 | 0 | 0.0 | 0.9 | 0.00 | 0.00 | 0.00 | 74 | 1111.0 |
| 20260905160946 | 63 | 0 | 0.0 | 0.0 | 0.00 | 0.00 | 0.00 | 73 | 1111.0 |
| 20260905155945 | 64 | 0 | 0.0 | 0.0 | 0.00 | 0.00 | 0.00 | 72 | 1111.0 |
| 20260905155049 | 64 | 0 | 0.0 | 2.6 | 0.00 | 0.00 | 0.00 | 70 | 1111.0 |
| 20260905154944 | 64 | 0 | 0.0 | 4.3 | 0.00 | 0.00 | 0.00 | 70 | 1111.0 |
| 20260905153944 | 66 | 0 | 4.3 | 4.3 | 0.00 | 0.00 | 0.00 | 65 | 1111.0 |
| 20260905153146 | 68 | 247 | 0.9 | 4.3 | 0.00 | 0.00 | 0.00 | 64 | 1111.0 |
| 20260905152943 | 68 | 292 | 0.9 | 4.3 | 0.00 | 0.00 | 0.00 | 64 | 1111.0 |
| 20260905151943 | 71 | 292 | 2.6 | 5.2 | 0.00 | 0.00 | 0.00 | 57 | 1111.0 |
| 20260905151245 | 73 | 270 | 5.2 | 5.2 | 0.00 | 0.00 | 0.00 | 56 | 1111.0 |
| 20260905150942 | 73 | 315 | 2.6 | 2.6 | 0.00 | 0.00 | 0.00 | 55 | 1111.0 |
| 20260905145941 | 74 | 337 | 3.5 | 4.3 | 0.00 | 0.00 | 0.00 | 54 | 1111.0 |
| 20260905145401 | 74 | 292 | 4.3 | 4.3 | 0.00 | 0.00 | 0.00 | 53 | 1111.0 |
| 20260905144941 | 75 | 292 | 4.3 | 5.2 | 0.00 | 0.00 | 0.00 | 53 | 1111.0 |
| 20260905143940 | 76 | 315 | 0.0 | 4.3 | 0.00 | 0.00 | 0.00 | 52 | 1111.0 |
| 20260905142940 | 77 | 180 | 2.6 | 2.6 | 0.00 | 0.00 | 0.00 | 51 | 1111.0 |
| 20260905141939 | 77 | 247 | 0.9 | 1.7 | 0.00 | 0.00 | 0.00 | 51 | 1111.0 |
| 20260905140939 | 78 | 135 | 1.7 | 1.7 | 0.00 | 0.00 | 0.00 | 50 | 1111.0 |
| 20260905135938 | 80 | 315 | 2.6 | 10.4 | 0.00 | 0.00 | 0.00 | 49 | 1111.0 |
| 20260905134937 | 80 | 247 | 2.6 | 3.5 | 0.00 | 0.00 | 0.00 | 49 | 1111.0 |
| 20260905133937 | 80 | 202 | 0.9 | 1.7 | 0.00 | 0.00 | 0.00 | 50 | 1111.0 |
| 20260905132936 | 78 | 135 | 0.0 | 5.2 | 0.00 | 0.00 | 0.00 | 52 | 1111.0 |
| 20260905131936 | 76 | 180 | 4.3 | 4.3 | 0.00 | 0.00 | 0.00 | 53 | 1111.0 |
| 20260905131838 | 76 | 180 | 4.3 | 4.3 | 0.00 | 0.00 | 0.00 | 53 | 1111.0 |
| 20260905130935 | 77 | 270 | 0.9 | 0.9 | 0.00 | 0.00 | 0.00 | 51 | 1111.0 |
| 20260905125935 | 78 | 0 | 0.0 | 1.7 | 0.00 | 0.00 | 0.00 | 52 | 1111.0 |
| 20260905124934 | 77 | 202 | 1.7 | 4.3 | 0.00 | 0.00 | 0.00 | 52 | 1111.0 |
| 20260905124039 | 77 | 202 | 2.6 | 2.6 | 0.00 | 0.00 | 0.00 | 51 | 1111.0 |
| 20260905123933 | 77 | 202 | 2.6 | 2.6 | 0.00 | 0.00 | 0.00 | 51 | 1111.0 |
| 20260905122933 | 77 | 202 | 3.5 | 5.2 | 0.00 | 0.00 | 0.00 | 53 | 1111.0 |
| 20260905121932 | 76 | 180 | 1.7 | 5.2 | 0.00 | 0.00 | 0.00 | 52 | 1111.0 |
| 20260905120932 | 76 | 202 | 5.2 | 5.2 | 0.00 | 0.00 | 0.00 | 52 | 1111.0 |
| 20260905120234 | 76 | 292 | 0.0 | 0.0 | 0.00 | 0.00 | 0.00 | 52 | 1111.0 |
| 20260905115931 | 76 | 292 | 0.0 | 0.0 | 0.00 | 0.00 | 0.00 | 52 | 1111.0 |
| 20260905114931 | 76 | 0 | 1.7 | 2.6 | 0.00 | 0.00 | 0.00 | 51 | 1111.0 |
| 20260905114333 | 76 | 337 | 1.7 | 3.5 | 0.00 | 0.00 | 0.00 | 52 | 1111.0 |
| 20260905113930 | 76 | 292 | 1.7 | 3.5 | 0.00 | 0.00 | 0.00 | 52 | 1111.0 |
| 20260905112929 | 76 | 292 | 0.9 | 2.6 | 0.00 | 0.00 | 0.00 | 51 | 1111.0 |
| 20260905111929 | 77 | 337 | 7.0 | 7.0 | 0.00 | 0.00 | 0.00 | 51 | 1111.0 |
| 20260905110928 | 78 | 315 | 1.7 | 4.3 | 0.00 | 0.00 | 0.00 | 51 | 1111.0 |
| 20260905105928 | 78 | 0 | 2.6 | 2.6 | 0.00 | 0.00 | 0.00 | 49 | 1111.0 |
| 20260905104927 | 79 | 0 | 3.5 | 5.2 | 0.00 | 0.00 | 0.00 | 49 | 1111.0 |
| 20260905103927 | 79 | 0 | 5.2 | 5.2 | 0.00 | 0.00 | 0.00 | 49 | 1111.0 |
| 20260905102926 | 78 | 315 | 0.9 | 4.3 | 0.00 | 0.00 | 0.00 | 49 | 1111.0 |
| 20260905101925 | 78 | 315 | 0.0 | 6.1 | 0.00 | 0.00 | 0.00 | 49 | 1111.0 |
| 20260905100925 | 78 | 247 | 0.9 | 9.6 | 0.00 | 0.00 | 0.00 | 49 | 1111.0 |
| 20260905095924 | 79 | 292 | 1.7 | 6.1 | 0.00 | 0.00 | 0.00 | 49 | 1111.0 |
| 20260905094924 | 79 | 0 | 2.6 | 2.6 | 0.00 | 0.00 | 0.00 | 50 | 1111.0 |
| 20260905093923 | 78 | 225 | 1.7 | 3.5 | 0.00 | 0.00 | 0.00 | 51 | 1111.0 |
| 20260905093025 | 78 | 315 | 4.3 | 7.0 | 0.00 | 0.00 | 0.00 | 51 | 1111.0 |
| 20260905092923 | 78 | 315 | 4.3 | 7.0 | 0.00 | 0.00 | 0.00 | 51 | 1111.0 |
| 20260905091922 | 78 | 315 | 1.7 | 7.0 | 0.00 | 0.00 | 0.00 | 52 | 1111.0 |
| 20260905090921 | 77 | 225 | 3.5 | 3.5 | 0.00 | 0.00 | 0.00 | 52 | 1111.0 |
| 20260905085921 | 77 | 270 | 4.3 | 4.3 | 0.00 | 0.00 | 0.00 | 54 | 1111.0 |
| 20260905084920 | 75 | 292 | 1.7 | 1.7 | 0.00 | 0.00 | 0.00 | 54 | 1111.0 |
| 20260905083920 | 75 | 270 | 0.9 | 5.2 | 0.00 | 0.00 | 0.00 | 53 | 1111.0 |
| 20260905082919 | 75 | 225 | 5.2 | 6.1 | 0.00 | 0.00 | 0.00 | 54 | 1111.0 |
| 20260905081919 | 74 | 202 | 3.5 | 6.1 | 0.00 | 0.00 | 0.00 | 55 | 1111.0 |
| 20260905080918 | 73 | 247 | 1.7 | 1.7 | 0.00 | 0.00 | 0.00 | 56 | 1111.0 |
| 20260905075917 | 73 | 315 | 1.7 | 1.7 | 0.00 | 0.00 | 0.00 | 57 | 1111.0 |
| 20260905074917 | 73 | 225 | 2.6 | 5.2 | 0.00 | 0.00 | 0.00 | 58 | 1111.0 |
| 20260905073916 | 72 | 180 | 0.9 | 2.6 | 0.00 | 0.00 | 0.00 | 60 | 1111.0 |
| 20260905072916 | 72 | 180 | 1.7 | 4.3 | 0.00 | 0.00 | 0.00 | 60 | 1111.0 |
| 20260905071915 | 72 | 315 | 5.2 | 5.2 | 0.00 | 0.00 | 0.00 | 61 | 1111.0 |
| 20260905070914 | 72 | 202 | 5.2 | 6.1 | 0.00 | 0.00 | 0.00 | 64 | 1111.0 |
| 20260905065914 | 71 | 180 | 1.7 | 3.5 | 0.00 | 0.00 | 0.00 | 66 | 1111.0 |
| 20260905064913 | 69 | 180 | 3.5 | 3.5 | 0.00 | 0.00 | 0.00 | 69 | 1111.0 |
| 20260905063913 | 67 | 225 | 1.7 | 1.7 | 0.00 | 0.00 | 0.00 | 74 | 1111.0 |
| 20260905062912 | 66 | 22 | 1.7 | 1.7 | 0.00 | 0.00 | 0.00 | 76 | 1111.0 |
| 20260905061912 | 65 | 315 | 0.0 | 1.7 | 0.00 | 0.00 | 0.00 | 79 | 1111.0 |
| 20260905060911 | 62 | 225 | 0.0 | 0.9 | 0.00 | 0.00 | 0.00 | 82 | 1111.0 |
| 20260905055911 | 61 | 225 | 0.9 | 0.9 | 0.00 | 0.00 | 0.00 | 84 | 1111.0 |
| 20260905054910 | 59 | 225 | 0.0 | 0.9 | 0.00 | 0.00 | 0.00 | 86 | 1111.0 |
| 20260905053909 | 57 | 225 | 1.7 | 1.7 | 0.00 | 0.00 | 0.00 | 87 | 1111.0 |
| 20260905052909 | 55 | 225 | 0.0 | 1.7 | 0.00 | 0.00 | 0.00 | 87 | 1111.0 |
| 20260905051908 | 53 | 225 | 0.0 | 0.0 | 0.00 | 0.00 | 0.00 | 88 | 1111.0 |
| 20260905050908 | 51 | 225 | 0.0 | 0.0 | 0.00 | 0.00 | 0.00 | 87 | 1111.0 |
| 20260905045907 | 50 | 225 | 0.0 | 0.9 | 0.00 | 0.00 | 0.00 | 87 | 1111.0 |
| 20260905044906 | 49 | 225 | 1.7 | 1.7 | 0.00 | 0.00 | 0.00 | 86 | 1111.0 |
| 20260905043906 | 48 | 225 | 0.0 | 1.7 | 0.00 | 0.00 | 0.00 | 86 | 1111.0 |
| 20260905042905 | 48 | 225 | 0.0 | 0.9 | 0.00 | 0.00 | 0.00 | 85 | 1111.0 |
| 20260905041905 | 48 | 225 | 0.0 | 0.0 | 0.00 | 0.00 | 0.00 | 85 | 1111.0 |
| 20260905040904 | 48 | 225 | 0.0 | 0.0 | 0.00 | 0.00 | 0.00 | 85 | 1111.0 |
| 20260905035905 | 48 | 225 | 0.0 | 0.9 | 0.00 | 0.00 | 0.00 | 85 | 1111.0 |